sensor_id;sensor_type;location;lat;lon;timestamp;temperature;humidity
22908;DHT22;11620;50.050;8.690;2023-07-13T00:02:25;20.80;99.90
22908;DHT22;11620;50.050;8.690;2023-07-13T00:05:12;20.60;99.90
22908;DHT22;11620;50.050;8.690;2023-07-13T00:08:00;20.60;99.90
22908;DHT22;11620;50.050;8.690;2023-07-13T00:10:46;20.60;99.90
22908;DHT22;11620;50.050;8.690;2023-07-13T00:13:32;20.60;99.90
22908;DHT22;11620;50.050;8.690;2023-07-13T00:16:19;20.50;99.90
22908;DHT22;11620;50.050;8.690;2023-07-13T00:19:06;20.50;99.90
22908;DHT22;11620;50.050;8.690;2023-07-13T00:21:52;20.40;99.90
22908;DHT22;11620;50.050;8.690;2023-07-13T00:24:41;20.10;99.90
22908;DHT22;11620;50.050;8.690;2023-07-13T00:27:28;20.10;99.90
22908;DHT22;11620;50.050;8.690;2023-07-13T00:30:16;20.20;99.90
22908;DHT22;11620;50.050;8.690;2023-07-13T00:33:02;20.30;99.90
22908;DHT22;11620;50.050;8.690;2023-07-13T00:35:49;20.30;99.90
22908;DHT22;11620;50.050;8.690;2023-07-13T00:38:36;20.30;99.90
22908;DHT22;11620;50.050;8.690;2023-07-13T00:41:22;20.30;99.90
22908;DHT22;11620;50.050;8.690;2023-07-13T00:44:14;20.20;99.90
22908;DHT22;11620;50.050;8.690;2023-07-13T00:47:01;20.20;99.90
22908;DHT22;11620;50.050;8.690;2023-07-13T00:49:47;20.20;99.90
22908;DHT22;11620;50.050;8.690;2023-07-13T00:52:35;20.20;99.90
22908;DHT22;11620;50.050;8.690;2023-07-13T00:55:22;20.10;99.90
22908;DHT22;11620;50.050;8.690;2023-07-13T00:58:09;20.10;99.90
22908;DHT22;11620;50.050;8.690;2023-07-13T01:00:55;20.10;99.90
22908;DHT22;11620;50.050;8.690;2023-07-13T01:03:41;20.10;99.90
22908;DHT22;11620;50.050;8.690;2023-07-13T01:06:28;20.00;99.90
22908;DHT22;11620;50.050;8.690;2023-07-13T01:09:15;20.00;99.90
22908;DHT22;11620;50.050;8.690;2023-07-13T01:12:02;19.90;99.90
22908;DHT22;11620;50.050;8.690;2023-07-13T01:14:56;19.90;99.90
22908;DHT22;11620;50.050;8.690;2023-07-13T01:17:42;19.90;99.90
22908;DHT22;11620;50.050;8.690;2023-07-13T01:20:29;19.80;99.90
22908;DHT22;11620;50.050;8.690;2023-07-13T01:23:15;19.80;99.90
22908;DHT22;11620;50.050;8.690;2023-07-13T01:26:02;19.70;99.90
22908;DHT22;11620;50.050;8.690;2023-07-13T01:28:48;19.60;99.90
22908;DHT22;11620;50.050;8.690;2023-07-13T01:31:34;19.60;99.90
22908;DHT22;11620;50.050;8.690;2023-07-13T01:34:21;19.60;99.90
22908;DHT22;11620;50.050;8.690;2023-07-13T01:37:08;19.60;99.90
22908;DHT22;11620;50.050;8.690;2023-07-13T01:39:54;19.50;99.90
22908;DHT22;11620;50.050;8.690;2023-07-13T01:42:41;19.40;99.90
22908;DHT22;11620;50.050;8.690;2023-07-13T01:45:27;19.40;99.90
22908;DHT22;11620;50.050;8.690;2023-07-13T01:48:14;19.40;99.90
22908;DHT22;11620;50.050;8.690;2023-07-13T01:51:00;19.30;99.90
22908;DHT22;11620;50.050;8.690;2023-07-13T01:53:46;19.30;99.90
22908;DHT22;11620;50.050;8.690;2023-07-13T01:56:33;19.30;99.90
22908;DHT22;11620;50.050;8.690;2023-07-13T01:59:19;19.30;99.90
22908;DHT22;11620;50.050;8.690;2023-07-13T02:02:05;19.30;99.90
22908;DHT22;11620;50.050;8.690;2023-07-13T02:04:52;19.20;99.90
22908;DHT22;11620;50.050;8.690;2023-07-13T02:07:39;19.20;99.90
22908;DHT22;11620;50.050;8.690;2023-07-13T02:10:25;19.20;99.90
22908;DHT22;11620;50.050;8.690;2023-07-13T02:13:11;19.10;99.90
22908;DHT22;11620;50.050;8.690;2023-07-13T02:15:58;19.10;99.90
22908;DHT22;11620;50.050;8.690;2023-07-13T02:18:44;19.00;99.90
22908;DHT22;11620;50.050;8.690;2023-07-13T02:21:30;19.00;99.90
22908;DHT22;11620;50.050;8.690;2023-07-13T02:24:17;18.90;99.90
22908;DHT22;11620;50.050;8.690;2023-07-13T02:27:05;18.90;99.90
22908;DHT22;11620;50.050;8.690;2023-07-13T02:29:52;18.90;99.90
22908;DHT22;11620;50.050;8.690;2023-07-13T02:32:39;18.90;99.90
22908;DHT22;11620;50.050;8.690;2023-07-13T02:35:25;18.90;99.90
22908;DHT22;11620;50.050;8.690;2023-07-13T02:38:12;18.90;99.90
22908;DHT22;11620;50.050;8.690;2023-07-13T02:40:58;18.90;99.90
22908;DHT22;11620;50.050;8.690;2023-07-13T02:43:44;18.80;99.90
22908;DHT22;11620;50.050;8.690;2023-07-13T02:46:32;18.90;99.90
22908;DHT22;11620;50.050;8.690;2023-07-13T02:49:19;18.90;99.90
22908;DHT22;11620;50.050;8.690;2023-07-13T02:52:05;18.70;99.90
22908;DHT22;11620;50.050;8.690;2023-07-13T02:54:52;18.50;99.90
22908;DHT22;11620;50.050;8.690;2023-07-13T02:57:38;18.60;99.90
22908;DHT22;11620;50.050;8.690;2023-07-13T03:00:24;18.20;99.90
22908;DHT22;11620;50.050;8.690;2023-07-13T03:03:11;18.00;99.90
22908;DHT22;11620;50.050;8.690;2023-07-13T03:06:02;17.80;99.90
22908;DHT22;11620;50.050;8.690;2023-07-13T03:08:49;17.90;99.90
22908;DHT22;11620;50.050;8.690;2023-07-13T03:11:35;17.90;99.90
22908;DHT22;11620;50.050;8.690;2023-07-13T03:14:22;18.00;99.90
22908;DHT22;11620;50.050;8.690;2023-07-13T03:17:09;17.90;99.90
22908;DHT22;11620;50.050;8.690;2023-07-13T03:19:55;18.00;99.90
22908;DHT22;11620;50.050;8.690;2023-07-13T03:22:42;17.80;99.90
22908;DHT22;11620;50.050;8.690;2023-07-13T03:25:28;17.60;99.90
22908;DHT22;11620;50.050;8.690;2023-07-13T03:28:15;17.50;99.90
22908;DHT22;11620;50.050;8.690;2023-07-13T03:31:07;17.70;99.90
22908;DHT22;11620;50.050;8.690;2023-07-13T03:33:55;17.80;99.90
22908;DHT22;11620;50.050;8.690;2023-07-13T03:36:41;17.90;99.90
22908;DHT22;11620;50.050;8.690;2023-07-13T03:39:28;17.90;99.90
22908;DHT22;11620;50.050;8.690;2023-07-13T03:42:14;17.90;99.90
22908;DHT22;11620;50.050;8.690;2023-07-13T03:45:01;17.80;99.90
22908;DHT22;11620;50.050;8.690;2023-07-13T03:47:47;17.60;99.90
22908;DHT22;11620;50.050;8.690;2023-07-13T03:50:33;17.60;99.90
22908;DHT22;11620;50.050;8.690;2023-07-13T03:53:20;17.70;99.90
22908;DHT22;11620;50.050;8.690;2023-07-13T03:56:07;17.80;99.90
22908;DHT22;11620;50.050;8.690;2023-07-13T03:58:53;17.80;99.90
22908;DHT22;11620;50.050;8.690;2023-07-13T04:01:39;17.90;99.90
22908;DHT22;11620;50.050;8.690;2023-07-13T04:04:26;17.90;99.90
22908;DHT22;11620;50.050;8.690;2023-07-13T04:07:12;17.90;99.90
22908;DHT22;11620;50.050;8.690;2023-07-13T04:09:58;17.80;99.90
22908;DHT22;11620;50.050;8.690;2023-07-13T04:12:45;17.60;99.90
22908;DHT22;11620;50.050;8.690;2023-07-13T04:15:32;17.40;99.90
22908;DHT22;11620;50.050;8.690;2023-07-13T04:18:19;17.50;99.90
22908;DHT22;11620;50.050;8.690;2023-07-13T04:21:05;17.60;99.90
22908;DHT22;11620;50.050;8.690;2023-07-13T04:23:52;17.60;99.90
22908;DHT22;11620;50.050;8.690;2023-07-13T04:26:39;17.60;99.90
22908;DHT22;11620;50.050;8.690;2023-07-13T04:29:26;17.60;99.90
22908;DHT22;11620;50.050;8.690;2023-07-13T04:32:12;17.70;99.90
22908;DHT22;11620;50.050;8.690;2023-07-13T04:34:59;17.70;99.90
22908;DHT22;11620;50.050;8.690;2023-07-13T04:37:45;17.70;99.90
22908;DHT22;11620;50.050;8.690;2023-07-13T04:40:32;17.70;99.90
22908;DHT22;11620;50.050;8.690;2023-07-13T04:43:18;17.70;99.90
22908;DHT22;11620;50.050;8.690;2023-07-13T04:46:08;17.70;99.90
22908;DHT22;11620;50.050;8.690;2023-07-13T04:48:55;17.70;99.90
22908;DHT22;11620;50.050;8.690;2023-07-13T04:51:43;17.70;99.90
22908;DHT22;11620;50.050;8.690;2023-07-13T04:54:29;17.70;99.90
22908;DHT22;11620;50.050;8.690;2023-07-13T04:57:16;17.60;99.90
22908;DHT22;11620;50.050;8.690;2023-07-13T05:00:03;17.60;99.90
22908;DHT22;11620;50.050;8.690;2023-07-13T05:02:57;17.60;99.90
22908;DHT22;11620;50.050;8.690;2023-07-13T05:05:58;17.60;99.90
22908;DHT22;11620;50.050;8.690;2023-07-13T05:08:44;17.20;99.90
22908;DHT22;11620;50.050;8.690;2023-07-13T05:11:31;17.10;99.90
22908;DHT22;11620;50.050;8.690;2023-07-13T05:14:17;16.90;99.90
22908;DHT22;11620;50.050;8.690;2023-07-13T05:17:04;16.90;99.90
22908;DHT22;11620;50.050;8.690;2023-07-13T05:19:50;17.00;99.90
22908;DHT22;11620;50.050;8.690;2023-07-13T05:22:36;16.80;99.90
22908;DHT22;11620;50.050;8.690;2023-07-13T05:25:23;17.00;99.90
22908;DHT22;11620;50.050;8.690;2023-07-13T05:28:09;17.10;99.90
22908;DHT22;11620;50.050;8.690;2023-07-13T05:30:55;17.20;99.90
22908;DHT22;11620;50.050;8.690;2023-07-13T05:33:42;17.00;99.90
22908;DHT22;11620;50.050;8.690;2023-07-13T05:36:28;16.90;99.90
22908;DHT22;11620;50.050;8.690;2023-07-13T05:39:15;16.90;99.90
22908;DHT22;11620;50.050;8.690;2023-07-13T05:42:02;16.80;99.90
22908;DHT22;11620;50.050;8.690;2023-07-13T05:44:49;16.90;99.90
22908;DHT22;11620;50.050;8.690;2023-07-13T05:47:35;16.90;99.90
22908;DHT22;11620;50.050;8.690;2023-07-13T05:50:21;17.00;99.90
22908;DHT22;11620;50.050;8.690;2023-07-13T05:53:08;17.00;99.90
22908;DHT22;11620;50.050;8.690;2023-07-13T05:55:55;17.20;99.90
22908;DHT22;11620;50.050;8.690;2023-07-13T05:58:41;17.20;99.90
22908;DHT22;11620;50.050;8.690;2023-07-13T06:01:30;17.30;99.90
22908;DHT22;11620;50.050;8.690;2023-07-13T06:04:17;17.40;99.90
22908;DHT22;11620;50.050;8.690;2023-07-13T06:07:03;17.50;99.90
22908;DHT22;11620;50.050;8.690;2023-07-13T06:09:49;17.60;99.90
22908;DHT22;11620;50.050;8.690;2023-07-13T06:12:36;17.60;99.90
22908;DHT22;11620;50.050;8.690;2023-07-13T06:15:22;17.60;99.90
22908;DHT22;11620;50.050;8.690;2023-07-13T06:18:09;17.80;99.90
22908;DHT22;11620;50.050;8.690;2023-07-13T06:20:55;18.00;99.90
22908;DHT22;11620;50.050;8.690;2023-07-13T06:23:42;18.00;99.90
22908;DHT22;11620;50.050;8.690;2023-07-13T06:26:28;18.30;99.90
22908;DHT22;11620;50.050;8.690;2023-07-13T06:29:15;18.60;99.90
22908;DHT22;11620;50.050;8.690;2023-07-13T06:32:02;19.00;99.90
22908;DHT22;11620;50.050;8.690;2023-07-13T06:34:48;19.30;99.90
22908;DHT22;11620;50.050;8.690;2023-07-13T06:37:34;19.60;99.90
22908;DHT22;11620;50.050;8.690;2023-07-13T06:40:20;19.90;99.90
22908;DHT22;11620;50.050;8.690;2023-07-13T06:43:07;20.30;99.90
22908;DHT22;11620;50.050;8.690;2023-07-13T06:45:55;20.60;99.90
22908;DHT22;11620;50.050;8.690;2023-07-13T06:48:42;20.80;99.90
22908;DHT22;11620;50.050;8.690;2023-07-13T06:51:29;21.10;99.90
22908;DHT22;11620;50.050;8.690;2023-07-13T06:54:15;21.30;99.90
22908;DHT22;11620;50.050;8.690;2023-07-13T06:57:01;21.60;99.90
22908;DHT22;11620;50.050;8.690;2023-07-13T06:59:48;21.80;99.90
22908;DHT22;11620;50.050;8.690;2023-07-13T07:02:34;22.00;99.90
22908;DHT22;11620;50.050;8.690;2023-07-13T07:05:21;22.30;99.90
22908;DHT22;11620;50.050;8.690;2023-07-13T07:08:08;22.50;99.90
22908;DHT22;11620;50.050;8.690;2023-07-13T07:10:54;22.40;99.90
22908;DHT22;11620;50.050;8.690;2023-07-13T07:13:41;22.40;99.90
22908;DHT22;11620;50.050;8.690;2023-07-13T07:16:27;22.60;99.90
22908;DHT22;11620;50.050;8.690;2023-07-13T07:19:13;22.80;99.90
22908;DHT22;11620;50.050;8.690;2023-07-13T07:22:00;23.00;99.90
22908;DHT22;11620;50.050;8.690;2023-07-13T07:24:46;23.30;99.90
22908;DHT22;11620;50.050;8.690;2023-07-13T07:27:32;23.30;99.90
22908;DHT22;11620;50.050;8.690;2023-07-13T07:30:19;23.40;99.90
22908;DHT22;11620;50.050;8.690;2023-07-13T07:33:05;23.50;99.90
22908;DHT22;11620;50.050;8.690;2023-07-13T07:35:52;23.50;99.90
22908;DHT22;11620;50.050;8.690;2023-07-13T07:38:38;23.70;99.90
22908;DHT22;11620;50.050;8.690;2023-07-13T07:41:24;23.20;99.90
22908;DHT22;11620;50.050;8.690;2023-07-13T07:44:11;23.60;99.90
22908;DHT22;11620;50.050;8.690;2023-07-13T07:46:57;24.00;99.90
22908;DHT22;11620;50.050;8.690;2023-07-13T07:49:44;23.90;99.90
22908;DHT22;11620;50.050;8.690;2023-07-13T07:52:30;24.10;99.90
22908;DHT22;11620;50.050;8.690;2023-07-13T07:55:17;24.30;99.90
22908;DHT22;11620;50.050;8.690;2023-07-13T07:58:04;24.40;99.90
22908;DHT22;11620;50.050;8.690;2023-07-13T08:00:50;23.40;99.90
22908;DHT22;11620;50.050;8.690;2023-07-13T08:03:37;23.80;99.90
22908;DHT22;11620;50.050;8.690;2023-07-13T08:06:23;24.30;99.90
22908;DHT22;11620;50.050;8.690;2023-07-13T08:09:09;24.70;99.90
22908;DHT22;11620;50.050;8.690;2023-07-13T08:11:56;24.90;99.90
22908;DHT22;11620;50.050;8.690;2023-07-13T08:14:42;25.10;99.90
22908;DHT22;11620;50.050;8.690;2023-07-13T08:17:29;25.20;99.90
22908;DHT22;11620;50.050;8.690;2023-07-13T08:20:15;25.30;99.90
22908;DHT22;11620;50.050;8.690;2023-07-13T08:23:02;25.40;99.90
22908;DHT22;11620;50.050;8.690;2023-07-13T08:25:54;25.40;99.10
22908;DHT22;11620;50.050;8.690;2023-07-13T08:28:41;25.30;99.20
22908;DHT22;11620;50.050;8.690;2023-07-13T08:31:27;25.40;98.70
22908;DHT22;11620;50.050;8.690;2023-07-13T08:34:14;25.70;99.00
22908;DHT22;11620;50.050;8.690;2023-07-13T08:37:01;25.70;99.60
22908;DHT22;11620;50.050;8.690;2023-07-13T08:39:48;26.00;98.80
22908;DHT22;11620;50.050;8.690;2023-07-13T08:43:02;25.90;98.00
22908;DHT22;11620;50.050;8.690;2023-07-13T08:46:19;25.00;98.30
22908;DHT22;11620;50.050;8.690;2023-07-13T08:49:15;25.30;99.70
22908;DHT22;11620;50.050;8.690;2023-07-13T08:52:08;25.80;99.60
22908;DHT22;11620;50.050;8.690;2023-07-13T08:54:58;25.90;99.80
22908;DHT22;11620;50.050;8.690;2023-07-13T08:58:01;26.50;98.60
22908;DHT22;11620;50.050;8.690;2023-07-13T09:01:16;26.20;96.10
22908;DHT22;11620;50.050;8.690;2023-07-13T09:04:11;25.90;97.30
22908;DHT22;11620;50.050;8.690;2023-07-13T09:07:12;25.80;97.20
22908;DHT22;11620;50.050;8.690;2023-07-13T09:16:14;25.70;95.50
22908;DHT22;11620;50.050;8.690;2023-07-13T09:19:06;25.40;94.80
22908;DHT22;11620;50.050;8.690;2023-07-13T09:21:54;25.20;95.30
22908;DHT22;11620;50.050;8.690;2023-07-13T09:24:52;25.70;96.30
22908;DHT22;11620;50.050;8.690;2023-07-13T09:27:43;25.70;95.90
22908;DHT22;11620;50.050;8.690;2023-07-13T09:30:38;26.20;94.80
22908;DHT22;11620;50.050;8.690;2023-07-13T09:33:26;26.80;96.60
22908;DHT22;11620;50.050;8.690;2023-07-13T09:36:20;27.00;94.30
22908;DHT22;11620;50.050;8.690;2023-07-13T09:39:28;27.20;94.10
22908;DHT22;11620;50.050;8.690;2023-07-13T09:42:18;27.20;93.40
22908;DHT22;11620;50.050;8.690;2023-07-13T09:45:05;27.70;94.10
22908;DHT22;11620;50.050;8.690;2023-07-13T09:48:12;27.90;93.60
22908;DHT22;11620;50.050;8.690;2023-07-13T09:51:09;28.30;93.10
22908;DHT22;11620;50.050;8.690;2023-07-13T09:53:59;27.30;93.70
22908;DHT22;11620;50.050;8.690;2023-07-13T09:56:45;27.50;92.40
22908;DHT22;11620;50.050;8.690;2023-07-13T09:59:40;27.20;93.80
22908;DHT22;11620;50.050;8.690;2023-07-13T10:02:30;27.10;92.70
22908;DHT22;11620;50.050;8.690;2023-07-13T10:05:18;27.00;92.40
22908;DHT22;11620;50.050;8.690;2023-07-13T10:08:21;27.20;93.30
22908;DHT22;11620;50.050;8.690;2023-07-13T10:11:19;26.80;91.80
22908;DHT22;11620;50.050;8.690;2023-07-13T10:14:17;26.00;91.60
22908;DHT22;11620;50.050;8.690;2023-07-13T10:17:10;26.10;92.60
22908;DHT22;11620;50.050;8.690;2023-07-13T10:20:03;26.00;91.70
22908;DHT22;11620;50.050;8.690;2023-07-13T10:23:02;25.70;92.30
22908;DHT22;11620;50.050;8.690;2023-07-13T10:25:50;25.70;92.60
22908;DHT22;11620;50.050;8.690;2023-07-13T10:28:39;26.00;93.10
22908;DHT22;11620;50.050;8.690;2023-07-13T10:31:26;26.50;92.40
22908;DHT22;11620;50.050;8.690;2023-07-13T10:34:13;27.10;92.20
22908;DHT22;11620;50.050;8.690;2023-07-13T10:37:00;26.30;91.30
22908;DHT22;11620;50.050;8.690;2023-07-13T10:39:48;26.50;92.20
22908;DHT22;11620;50.050;8.690;2023-07-13T10:42:39;26.20;90.90
22908;DHT22;11620;50.050;8.690;2023-07-13T10:45:34;26.40;91.20
22908;DHT22;11620;50.050;8.690;2023-07-13T10:48:23;27.20;91.50
22908;DHT22;11620;50.050;8.690;2023-07-13T10:51:10;27.20;91.10
22908;DHT22;11620;50.050;8.690;2023-07-13T10:54:20;27.10;91.10
22908;DHT22;11620;50.050;8.690;2023-07-13T11:03:00;27.80;90.40
22908;DHT22;11620;50.050;8.690;2023-07-13T11:05:51;27.60;90.40
22908;DHT22;11620;50.050;8.690;2023-07-13T11:08:52;27.30;90.20
22908;DHT22;11620;50.050;8.690;2023-07-13T11:11:38;26.80;91.50
22908;DHT22;11620;50.050;8.690;2023-07-13T11:14:35;27.30;90.80
22908;DHT22;11620;50.050;8.690;2023-07-13T11:17:37;28.00;90.70
22908;DHT22;11620;50.050;8.690;2023-07-13T11:20:38;28.00;90.20
22908;DHT22;11620;50.050;8.690;2023-07-13T11:23:29;27.90;90.20
22908;DHT22;11620;50.050;8.690;2023-07-13T11:29:37;28.00;90.90
22908;DHT22;11620;50.050;8.690;2023-07-13T11:32:29;28.50;88.70
22908;DHT22;11620;50.050;8.690;2023-07-13T11:35:22;28.90;88.20
22908;DHT22;11620;50.050;8.690;2023-07-13T11:38:15;28.70;88.30
22908;DHT22;11620;50.050;8.690;2023-07-13T11:44:16;28.90;88.10
22908;DHT22;11620;50.050;8.690;2023-07-13T11:47:11;29.30;88.10
22908;DHT22;11620;50.050;8.690;2023-07-13T11:50:00;28.90;85.30
22908;DHT22;11620;50.050;8.690;2023-07-13T11:52:47;28.90;87.20
22908;DHT22;11620;50.050;8.690;2023-07-13T11:55:39;29.00;89.00
22908;DHT22;11620;50.050;8.690;2023-07-13T11:58:26;28.90;88.40
22908;DHT22;11620;50.050;8.690;2023-07-13T12:01:21;28.80;88.30
22908;DHT22;11620;50.050;8.690;2023-07-13T12:04:19;28.80;87.70
22908;DHT22;11620;50.050;8.690;2023-07-13T12:07:15;29.10;86.60
22908;DHT22;11620;50.050;8.690;2023-07-13T12:10:04;28.90;84.70
22908;DHT22;11620;50.050;8.690;2023-07-13T12:15:45;28.10;87.40
22908;DHT22;11620;50.050;8.690;2023-07-13T12:18:32;28.10;86.40
22908;DHT22;11620;50.050;8.690;2023-07-13T12:21:24;27.90;86.70
22908;DHT22;11620;50.050;8.690;2023-07-13T12:24:17;27.50;85.50
22908;DHT22;11620;50.050;8.690;2023-07-13T12:27:05;27.60;87.50
22908;DHT22;11620;50.050;8.690;2023-07-13T12:29:58;28.00;88.40
22908;DHT22;11620;50.050;8.690;2023-07-13T12:33:16;28.30;87.80
22908;DHT22;11620;50.050;8.690;2023-07-13T12:36:04;28.40;85.50
22908;DHT22;11620;50.050;8.690;2023-07-13T12:38:52;28.90;88.10
22908;DHT22;11620;50.050;8.690;2023-07-13T12:41:38;29.50;86.10
22908;DHT22;11620;50.050;8.690;2023-07-13T12:44:29;28.90;83.00
22908;DHT22;11620;50.050;8.690;2023-07-13T12:47:16;28.30;84.60
22908;DHT22;11620;50.050;8.690;2023-07-13T12:50:17;27.50;85.90
22908;DHT22;11620;50.050;8.690;2023-07-13T12:53:05;27.70;86.10
22908;DHT22;11620;50.050;8.690;2023-07-13T12:55:59;27.60;87.10
22908;DHT22;11620;50.050;8.690;2023-07-13T12:58:47;27.50;88.00
22908;DHT22;11620;50.050;8.690;2023-07-13T13:01:36;27.70;88.20
22908;DHT22;11620;50.050;8.690;2023-07-13T13:04:25;27.70;88.50
22908;DHT22;11620;50.050;8.690;2023-07-13T13:07:12;27.40;87.10
22908;DHT22;11620;50.050;8.690;2023-07-13T13:09:58;27.20;89.00
22908;DHT22;11620;50.050;8.690;2023-07-13T13:12:44;27.60;88.80
22908;DHT22;11620;50.050;8.690;2023-07-13T13:15:31;27.60;87.90
22908;DHT22;11620;50.050;8.690;2023-07-13T13:18:21;27.00;86.60
22908;DHT22;11620;50.050;8.690;2023-07-13T13:21:10;26.40;87.50
22908;DHT22;11620;50.050;8.690;2023-07-13T13:23:56;26.70;88.20
22908;DHT22;11620;50.050;8.690;2023-07-13T13:26:44;26.40;87.70
22908;DHT22;11620;50.050;8.690;2023-07-13T13:29:36;26.00;88.10
22908;DHT22;11620;50.050;8.690;2023-07-13T13:32:25;25.60;88.50
22908;DHT22;11620;50.050;8.690;2023-07-13T13:35:15;25.50;88.90
22908;DHT22;11620;50.050;8.690;2023-07-13T13:38:02;25.50;90.10
22908;DHT22;11620;50.050;8.690;2023-07-13T13:40:48;25.70;89.70
22908;DHT22;11620;50.050;8.690;2023-07-13T13:43:34;25.70;88.40
22908;DHT22;11620;50.050;8.690;2023-07-13T13:46:22;25.90;89.40
22908;DHT22;11620;50.050;8.690;2023-07-13T13:49:16;25.80;89.30
22908;DHT22;11620;50.050;8.690;2023-07-13T13:52:03;25.70;89.40
22908;DHT22;11620;50.050;8.690;2023-07-13T13:54:50;25.70;89.50
22908;DHT22;11620;50.050;8.690;2023-07-13T13:57:36;26.10;90.50
22908;DHT22;11620;50.050;8.690;2023-07-13T14:00:23;26.10;88.50
22908;DHT22;11620;50.050;8.690;2023-07-13T14:03:18;26.30;90.30
22908;DHT22;11620;50.050;8.690;2023-07-13T14:06:04;26.20;89.50
22908;DHT22;11620;50.050;8.690;2023-07-13T14:08:51;26.20;88.90
22908;DHT22;11620;50.050;8.690;2023-07-13T14:11:37;25.90;89.10
22908;DHT22;11620;50.050;8.690;2023-07-13T14:14:24;25.50;88.50
22908;DHT22;11620;50.050;8.690;2023-07-13T14:17:24;25.00;88.70
22908;DHT22;11620;50.050;8.690;2023-07-13T14:20:12;25.20;90.40
22908;DHT22;11620;50.050;8.690;2023-07-13T14:22:58;25.60;91.00
22908;DHT22;11620;50.050;8.690;2023-07-13T14:25:46;25.60;89.10
22908;DHT22;11620;50.050;8.690;2023-07-13T14:28:32;25.60;90.30
22908;DHT22;11620;50.050;8.690;2023-07-13T14:31:20;25.50;89.40
22908;DHT22;11620;50.050;8.690;2023-07-13T14:34:09;25.50;88.90
22908;DHT22;11620;50.050;8.690;2023-07-13T14:36:55;25.60;89.70
22908;DHT22;11620;50.050;8.690;2023-07-13T14:39:47;25.60;88.40
22908;DHT22;11620;50.050;8.690;2023-07-13T14:42:35;25.60;88.60
22908;DHT22;11620;50.050;8.690;2023-07-13T14:45:21;25.60;89.10
22908;DHT22;11620;50.050;8.690;2023-07-13T14:48:22;25.70;89.10
22908;DHT22;11620;50.050;8.690;2023-07-13T14:51:09;25.90;89.40
22908;DHT22;11620;50.050;8.690;2023-07-13T14:53:56;25.70;89.30
22908;DHT22;11620;50.050;8.690;2023-07-13T14:56:42;25.80;90.40
22908;DHT22;11620;50.050;8.690;2023-07-13T14:59:29;26.10;90.70
22908;DHT22;11620;50.050;8.690;2023-07-13T15:05:16;26.10;90.90
22908;DHT22;11620;50.050;8.690;2023-07-13T15:08:04;26.10;91.50
22908;DHT22;11620;50.050;8.690;2023-07-13T15:10:50;26.20;91.20
22908;DHT22;11620;50.050;8.690;2023-07-13T15:13:37;26.10;91.50
22908;DHT22;11620;50.050;8.690;2023-07-13T15:16:25;26.00;91.00
22908;DHT22;11620;50.050;8.690;2023-07-13T15:19:12;26.00;91.20
22908;DHT22;11620;50.050;8.690;2023-07-13T15:21:58;25.90;91.00
22908;DHT22;11620;50.050;8.690;2023-07-13T15:24:44;25.80;91.20
22908;DHT22;11620;50.050;8.690;2023-07-13T15:27:31;25.70;91.40
22908;DHT22;11620;50.050;8.690;2023-07-13T15:30:18;25.80;91.20
22908;DHT22;11620;50.050;8.690;2023-07-13T15:33:24;25.80;91.30
22908;DHT22;11620;50.050;8.690;2023-07-13T15:36:11;25.90;91.40
22908;DHT22;11620;50.050;8.690;2023-07-13T15:38:59;25.70;91.00
22908;DHT22;11620;50.050;8.690;2023-07-13T15:41:46;25.70;91.20
22908;DHT22;11620;50.050;8.690;2023-07-13T15:44:33;25.90;90.70
22908;DHT22;11620;50.050;8.690;2023-07-13T15:47:19;26.00;90.90
22908;DHT22;11620;50.050;8.690;2023-07-13T15:50:12;26.00;90.20
22908;DHT22;11620;50.050;8.690;2023-07-13T15:52:59;25.80;89.40
22908;DHT22;11620;50.050;8.690;2023-07-13T15:55:45;25.70;90.20
22908;DHT22;11620;50.050;8.690;2023-07-13T15:58:32;25.70;90.50
22908;DHT22;11620;50.050;8.690;2023-07-13T16:01:18;25.70;90.80
22908;DHT22;11620;50.050;8.690;2023-07-13T16:04:05;25.70;90.40
22908;DHT22;11620;50.050;8.690;2023-07-13T16:06:51;25.70;90.40
22908;DHT22;11620;50.050;8.690;2023-07-13T16:09:38;25.50;91.00
22908;DHT22;11620;50.050;8.690;2023-07-13T16:12:26;25.30;90.10
22908;DHT22;11620;50.050;8.690;2023-07-13T16:15:18;25.00;90.90
22908;DHT22;11620;50.050;8.690;2023-07-13T16:18:05;25.10;91.00
22908;DHT22;11620;50.050;8.690;2023-07-13T16:20:51;25.00;90.40
22908;DHT22;11620;50.050;8.690;2023-07-13T16:23:39;24.90;90.00
22908;DHT22;11620;50.050;8.690;2023-07-13T16:26:35;24.80;90.50
22908;DHT22;11620;50.050;8.690;2023-07-13T16:29:30;24.70;90.20
22908;DHT22;11620;50.050;8.690;2023-07-13T16:32:17;24.90;91.40
22908;DHT22;11620;50.050;8.690;2023-07-13T16:35:04;25.00;90.90
22908;DHT22;11620;50.050;8.690;2023-07-13T16:37:52;24.90;90.30
22908;DHT22;11620;50.050;8.690;2023-07-13T16:40:39;25.20;91.30
22908;DHT22;11620;50.050;8.690;2023-07-13T16:43:25;25.30;91.20
22908;DHT22;11620;50.050;8.690;2023-07-13T16:46:13;25.40;91.00
22908;DHT22;11620;50.050;8.690;2023-07-13T16:49:01;25.50;90.70
22908;DHT22;11620;50.050;8.690;2023-07-13T16:51:47;25.50;90.60
22908;DHT22;11620;50.050;8.690;2023-07-13T16:54:36;25.40;90.10
22908;DHT22;11620;50.050;8.690;2023-07-13T16:57:32;25.40;90.60
22908;DHT22;11620;50.050;8.690;2023-07-13T17:00:26;25.20;90.40
22908;DHT22;11620;50.050;8.690;2023-07-13T17:03:15;24.90;90.20
22908;DHT22;11620;50.050;8.690;2023-07-13T17:06:23;25.00;90.60
22908;DHT22;11620;50.050;8.690;2023-07-13T17:09:11;25.00;90.70
22908;DHT22;11620;50.050;8.690;2023-07-13T17:11:59;24.70;90.40
22908;DHT22;11620;50.050;8.690;2023-07-13T17:14:46;24.70;90.40
22908;DHT22;11620;50.050;8.690;2023-07-13T17:17:38;24.40;90.10
22908;DHT22;11620;50.050;8.690;2023-07-13T17:20:31;24.10;90.50
22908;DHT22;11620;50.050;8.690;2023-07-13T17:23:24;24.10;90.30
22908;DHT22;11620;50.050;8.690;2023-07-13T17:26:11;24.00;90.30
22908;DHT22;11620;50.050;8.690;2023-07-13T17:28:58;23.90;90.30
22908;DHT22;11620;50.050;8.690;2023-07-13T17:31:44;24.00;90.70
22908;DHT22;11620;50.050;8.690;2023-07-13T17:34:34;24.00;90.10
22908;DHT22;11620;50.050;8.690;2023-07-13T17:37:20;24.20;91.00
22908;DHT22;11620;50.050;8.690;2023-07-13T17:40:13;23.80;90.30
22908;DHT22;11620;50.050;8.690;2023-07-13T17:43:03;23.60;90.50
22908;DHT22;11620;50.050;8.690;2023-07-13T17:45:54;23.60;91.00
22908;DHT22;11620;50.050;8.690;2023-07-13T17:48:43;23.70;90.90
22908;DHT22;11620;50.050;8.690;2023-07-13T17:51:30;23.50;90.50
22908;DHT22;11620;50.050;8.690;2023-07-13T17:54:18;23.50;91.50
22908;DHT22;11620;50.050;8.690;2023-07-13T17:57:07;23.50;91.20
22908;DHT22;11620;50.050;8.690;2023-07-13T17:59:53;23.50;91.90
22908;DHT22;11620;50.050;8.690;2023-07-13T18:02:40;23.30;90.80
22908;DHT22;11620;50.050;8.690;2023-07-13T18:05:27;23.40;91.80
22908;DHT22;11620;50.050;8.690;2023-07-13T18:08:29;23.30;90.80
22908;DHT22;11620;50.050;8.690;2023-07-13T18:11:15;23.40;91.50